Port Graham, Alaska
Current Conditions -  °F | °C
As of 6:53 PM on Friday 24 Oct 2014 (Local Time) from PAHO Reporting Station
Overcast Overcast  
Wind Chill: 36°   Ceiling: 3700
Heat Index: 42°   Visibility: 10mi
Dew Point: 24°   Wind: 10mph
Humidity: 49%   Direction: 20°NNE
Pressure: 29.86"   Gusts: NA
Location:  59.7153°N, 150.773°W
Report Text: PAHO 250253Z 02009KT 10SM OVC037 06/M04 A2986 RMK SLP110 T00561044 53013 VIA AUTODIAL
Loading
Personal Weather Stations






























Interactive Weather Map
Tropical Storm Tracking
New forecast layout! Learn more

10-Day Weather Forecast

Advertisements
Track Severe Weather on mobile